LICC/CTA METAR and TAF weather

Enter ICAO airport designator
Station Type Date Time Source
LICC METAR 2020/03/28 15:20 UTC NOAA

LICC 281520Z 07008KT 9999 FEW030 SCT060 15/10 Q1012 RETSRA


Station Type Date Time Source
LICC Decoded METAR 2020/03/28 15:20 UTC NOAA

Catania / Fontanarossa, Italy (LICC) 37-28N 015-03E 17M
Mar 28, 2020 - 11:20 AM EDT / 2020.03.28 1520 UTC
Wind: from the ENE (070 degrees) at 9 MPH (8 KT):0
Visibility: greater than 7 mile(s):0
Sky conditions: partly cloudy
Temperature: 59 F (15 C)
Dew Point: 50 F (10 C)
Relative Humidity: 72%
Pressure (altimeter): 29.88 in. Hg (1012 hPa)
ob: LICC 281520Z 07008KT 9999 FEW030 SCT060 15/10 Q1012 RETSRA
cycle: 15

Station Type Date Time Source
LICC TAF 2020/03/28 12:26 UTC NOAA

TAF LICC 281100Z 2812/2912 26012KT 9999 SCT030
TEMPO 2812/2818 RA
BECMG 2818/2820 VRB05KT
BECMG 2908/2910 08010KT

Example: see airport list